createdAt,value
2024-03-03T00:01:08.183Z,0.75
2024-03-03T00:03:37.095Z,0.73
2024-03-03T00:06:06.215Z,0.90
2024-03-03T00:08:34.921Z,1.08
2024-03-03T00:11:03.670Z,1.00
2024-03-03T00:13:33.008Z,0.85
2024-03-03T00:16:04.861Z,1.13
2024-03-03T00:18:32.589Z,0.65
2024-03-03T00:21:00.266Z,0.88
2024-03-03T00:23:28.284Z,1.10
2024-03-03T00:25:55.887Z,1.67
2024-03-03T00:28:23.622Z,0.98
2024-03-03T00:30:51.381Z,1.10
2024-03-03T00:33:20.473Z,1.05
2024-03-03T00:35:48.341Z,1.25
2024-03-03T00:38:15.994Z,1.00
2024-03-03T00:40:43.725Z,0.90
2024-03-03T00:43:11.627Z,0.90
2024-03-03T00:45:39.344Z,0.85
2024-03-03T00:48:08.471Z,0.98
2024-03-03T00:50:37.502Z,0.93
2024-03-03T00:53:05.468Z,1.15
2024-03-03T00:55:33.189Z,0.73
2024-03-03T00:58:01.158Z,0.90
2024-03-03T01:00:28.827Z,0.65
2024-03-03T01:02:56.544Z,0.70
2024-03-03T01:05:24.300Z,0.85
2024-03-03T01:07:53.361Z,0.82
2024-03-03T01:10:22.143Z,0.82
2024-03-03T01:12:50.145Z,1.20
2024-03-03T01:15:18.445Z,0.82
2024-03-03T01:17:46.287Z,1.08
2024-03-03T01:20:14.578Z,0.68
2024-03-03T01:22:42.535Z,0.82
2024-03-03T01:25:11.730Z,0.98
2024-03-03T01:27:39.672Z,0.80
2024-03-03T01:30:08.589Z,1.00
2024-03-03T01:32:36.353Z,0.90
2024-03-03T01:35:04.526Z,0.90
2024-03-03T01:37:32.665Z,0.95
2024-03-03T01:40:00.967Z,0.82
2024-03-03T01:42:30.101Z,0.85
2024-03-03T01:44:57.766Z,0.80
2024-03-03T01:47:25.767Z,0.73
2024-03-03T01:49:55.300Z,0.80
2024-03-03T01:52:26.517Z,1.05
2024-03-03T01:54:54.527Z,1.00
2024-03-03T01:57:23.908Z,0.75
2024-03-03T01:59:56.255Z,0.63
2024-03-03T02:02:24.107Z,0.82
2024-03-03T02:04:51.012Z,0.80
2024-03-03T02:07:20.588Z,1.27
2024-03-03T02:09:48.392Z,1.00
2024-03-03T02:12:18.092Z,1.05
2024-03-03T02:14:45.808Z,0.82
2024-03-03T02:17:14.841Z,1.17
2024-03-03T02:19:42.562Z,1.05
2024-03-03T02:22:11.832Z,1.17
2024-03-03T02:24:39.621Z,0.90
2024-03-03T02:27:07.472Z,0.82
2024-03-03T02:29:35.552Z,0.90
2024-03-03T02:32:03.326Z,0.77
2024-03-03T02:34:31.011Z,0.98
2024-03-03T02:36:58.735Z,0.88
2024-03-03T02:39:27.728Z,0.98
2024-03-03T02:41:55.765Z,1.10
2024-03-03T02:44:23.783Z,0.90
2024-03-03T02:46:51.474Z,1.00
2024-03-03T02:49:19.126Z,1.02
2024-03-03T02:51:46.828Z,1.00
2024-03-03T02:54:14.445Z,1.20
2024-03-03T02:56:43.458Z,0.90
2024-03-03T02:59:11.102Z,1.02
2024-03-03T03:01:38.952Z,1.05
2024-03-03T03:04:06.718Z,1.05
2024-03-03T03:06:34.527Z,0.88
2024-03-03T03:09:02.188Z,1.00
2024-03-03T03:11:29.954Z,1.08
2024-03-03T03:13:59.134Z,1.00
2024-03-03T03:16:27.059Z,0.80
2024-03-03T03:18:54.755Z,0.98
2024-03-03T03:21:22.514Z,0.93
2024-03-03T03:23:50.234Z,1.00
2024-03-03T03:26:17.883Z,1.13
2024-03-03T03:28:45.601Z,1.25
2024-03-03T03:31:15.104Z,1.33
2024-03-03T03:33:42.967Z,1.00
2024-03-03T03:36:11.112Z,1.02
2024-03-03T03:38:38.820Z,1.25
2024-03-03T03:41:06.956Z,0.98
2024-03-03T03:43:34.669Z,1.05
2024-03-03T03:46:02.357Z,0.95
2024-03-03T03:48:31.561Z,1.30
2024-03-03T03:50:59.211Z,0.93
2024-03-03T03:53:26.838Z,1.20
2024-03-03T03:55:54.524Z,1.27
2024-03-03T03:58:22.213Z,0.88
2024-03-03T04:00:49.925Z,1.23
2024-03-03T04:03:19.591Z,0.88
2024-03-03T04:05:48.804Z,0.90
2024-03-03T04:08:16.437Z,0.95
2024-03-03T04:10:44.717Z,1.10
2024-03-03T04:13:12.382Z,1.20
2024-03-03T04:15:40.273Z,1.10
2024-03-03T04:18:08.308Z,0.98
2024-03-03T04:20:37.019Z,0.82
2024-03-03T04:23:06.240Z,1.10
2024-03-03T04:25:33.904Z,1.13
2024-03-03T04:28:01.587Z,0.93
2024-03-03T04:30:29.465Z,1.10
2024-03-03T04:32:57.148Z,0.85
2024-03-03T04:35:24.838Z,1.25
2024-03-03T04:37:52.515Z,0.93
2024-03-03T04:40:21.655Z,0.85
2024-03-03T04:42:49.721Z,0.93
2024-03-03T04:45:17.384Z,1.00
2024-03-03T04:47:45.078Z,1.42
2024-03-03T04:50:13.382Z,1.23
2024-03-03T04:52:41.012Z,1.05
2024-03-03T04:55:09.435Z,0.93
2024-03-03T04:57:39.046Z,1.13
2024-03-03T05:00:10.241Z,1.02
2024-03-03T05:02:37.964Z,1.48
2024-03-03T05:05:06.948Z,1.00
2024-03-03T05:07:35.324Z,0.88
2024-03-03T05:10:03.033Z,1.23
2024-03-03T05:12:30.737Z,0.98
2024-03-03T05:14:59.786Z,1.13
2024-03-03T05:17:27.448Z,1.20
2024-03-03T05:19:55.081Z,0.75
2024-03-03T05:22:22.692Z,1.08
2024-03-03T05:24:50.312Z,1.27
2024-03-03T05:27:18.765Z,1.27
2024-03-03T05:29:46.455Z,1.02
2024-03-03T05:32:15.562Z,1.17
2024-03-03T05:34:43.290Z,1.50
2024-03-03T05:37:12.311Z,1.17
2024-03-03T05:39:41.535Z,1.35
2024-03-03T05:42:10.036Z,1.15
2024-03-03T05:44:37.767Z,1.15
2024-03-03T05:47:06.563Z,1.77
2024-03-03T05:49:37.126Z,1.27
2024-03-03T05:52:05.371Z,1.02
2024-03-03T05:54:33.079Z,1.40
2024-03-03T05:57:00.690Z,1.05
2024-03-03T05:59:28.409Z,0.95
2024-03-03T06:01:56.124Z,0.93
2024-03-03T06:04:23.870Z,1.20
2024-03-03T06:06:53.038Z,1.00
2024-03-03T06:09:20.804Z,1.23
2024-03-03T06:11:48.461Z,1.05
2024-03-03T06:14:16.567Z,0.90
2024-03-03T06:16:44.361Z,1.23
2024-03-03T06:19:12.020Z,1.02
2024-03-03T06:21:39.851Z,1.45
2024-03-03T06:24:09.188Z,1.35
2024-03-03T06:26:36.813Z,1.17
2024-03-03T06:29:07.168Z,1.25
2024-03-03T06:31:35.268Z,1.10
2024-03-03T06:34:02.943Z,1.25
2024-03-03T06:36:31.071Z,1.23
2024-03-03T06:38:58.795Z,1.40
2024-03-03T06:41:27.741Z,1.13
2024-03-03T06:43:56.184Z,0.93
2024-03-03T06:46:24.443Z,1.08
2024-03-03T06:48:52.207Z,1.23
2024-03-03T06:51:19.950Z,0.98
2024-03-03T06:53:47.593Z,1.23
2024-03-03T06:56:16.473Z,0.98
2024-03-03T06:58:47.857Z,0.95
2024-03-03T07:01:16.061Z,1.15
2024-03-03T07:04:08.622Z,1.52
2024-03-03T07:06:37.623Z,1.10
2024-03-03T07:09:06.371Z,0.98
2024-03-03T07:11:36.727Z,1.15
2024-03-03T07:14:06.716Z,1.20
2024-03-03T07:16:34.497Z,1.10
2024-03-03T07:19:02.313Z,1.13
2024-03-03T07:21:30.175Z,0.90
2024-03-03T07:23:58.521Z,0.95
2024-03-03T07:26:26.368Z,1.20
2024-03-03T07:28:54.493Z,1.30
2024-03-03T07:31:23.592Z,1.15
2024-03-03T07:33:52.286Z,0.82
2024-03-03T07:36:19.983Z,0.88
2024-03-03T07:38:47.826Z,0.90
2024-03-03T07:41:15.630Z,0.80
2024-03-03T07:43:43.614Z,1.00
2024-03-03T07:46:12.765Z,0.98
2024-03-03T07:48:41.970Z,1.10
2024-03-03T07:51:09.693Z,1.20
2024-03-03T07:53:37.362Z,1.30
2024-03-03T07:56:05.534Z,1.30
2024-03-03T07:58:37.902Z,0.98
2024-03-03T08:01:06.617Z,1.10
2024-03-03T08:03:35.028Z,0.77
2024-03-03T08:06:04.268Z,0.88
2024-03-03T08:08:31.968Z,1.23
2024-03-03T08:11:00.891Z,1.08
2024-03-03T08:13:28.570Z,1.15
2024-03-03T08:15:56.797Z,0.93
2024-03-03T08:18:24.539Z,0.95
2024-03-03T08:20:52.259Z,0.90
2024-03-03T08:23:21.288Z,0.85
2024-03-03T08:25:48.970Z,1.13
2024-03-03T08:28:16.705Z,1.10
2024-03-03T08:30:45.120Z,0.85
2024-03-03T08:33:13.084Z,0.98
2024-03-03T08:35:40.822Z,0.98
2024-03-03T08:38:08.460Z,0.90
2024-03-03T08:40:37.508Z,1.42
2024-03-03T08:43:06.081Z,1.13
2024-03-03T08:45:34.058Z,0.88
2024-03-03T08:48:01.809Z,0.95
2024-03-03T08:50:29.626Z,1.13
2024-03-03T08:52:57.311Z,0.88
2024-03-03T08:55:25.181Z,0.75
2024-03-03T08:57:54.521Z,1.10
2024-03-03T09:00:23.102Z,0.98
2024-03-03T09:02:50.767Z,0.85
2024-03-03T09:05:18.663Z,0.95
2024-03-03T09:07:46.378Z,0.95
2024-03-03T09:10:14.069Z,0.95
2024-03-03T09:12:41.797Z,1.63
2024-03-03T09:15:11.547Z,1.00
2024-03-03T09:17:39.437Z,0.73
2024-03-03T09:20:08.675Z,1.02
2024-03-03T09:22:37.435Z,0.88
2024-03-03T09:25:06.371Z,1.10
2024-03-03T09:27:34.124Z,1.02
2024-03-03T09:30:06.768Z,0.93
2024-03-03T09:32:37.461Z,1.15
2024-03-03T09:35:07.691Z,1.05
2024-03-03T09:37:35.423Z,1.13
2024-03-03T09:40:04.045Z,1.02
2024-03-03T09:42:31.845Z,0.77
2024-03-03T09:45:04.102Z,1.00
2024-03-03T09:47:34.325Z,1.00
2024-03-03T09:50:04.596Z,0.93
2024-03-03T09:52:33.793Z,1.02
2024-03-03T09:55:02.895Z,1.05
2024-03-03T09:57:34.929Z,1.00
2024-03-03T10:00:03.361Z,0.88
2024-03-03T10:02:33.274Z,1.10
2024-03-03T10:05:05.621Z,0.90
2024-03-03T10:07:38.748Z,0.93
2024-03-03T10:10:09.805Z,0.80
2024-03-03T10:12:37.908Z,0.82
2024-03-03T10:15:09.335Z,0.93
2024-03-03T10:17:37.383Z,0.80
2024-03-03T10:20:08.337Z,0.93
2024-03-03T10:22:36.747Z,0.90
2024-03-03T10:25:14.439Z,0.90
2024-03-03T10:27:44.742Z,1.13
2024-03-03T10:30:14.046Z,1.02
2024-03-03T10:32:42.337Z,1.25
2024-03-03T10:35:12.376Z,1.15
2024-03-03T10:37:49.472Z,1.15
2024-03-03T10:40:17.375Z,0.93
2024-03-03T10:42:45.417Z,1.08
2024-03-03T10:45:13.191Z,1.20
2024-03-03T10:47:40.928Z,1.10
2024-03-03T10:50:10.141Z,0.90
2024-03-03T10:52:41.347Z,1.05
2024-03-03T10:55:11.728Z,0.90
2024-03-03T10:57:40.659Z,0.93
2024-03-03T11:00:15.469Z,1.30
2024-03-03T11:02:43.957Z,0.88
2024-03-03T11:05:14.264Z,1.02
2024-03-03T11:07:44.758Z,1.02
2024-03-03T11:10:12.882Z,0.95
2024-03-03T11:12:44.883Z,0.90
2024-03-03T11:15:14.740Z,0.98
2024-03-03T11:17:47.903Z,1.05
2024-03-03T11:20:20.159Z,1.00
2024-03-03T11:22:59.248Z,0.90
2024-03-03T11:25:30.110Z,0.77
2024-03-03T11:28:00.536Z,0.65
2024-03-03T11:30:29.203Z,1.30
2024-03-03T11:32:57.816Z,1.08
2024-03-03T11:35:26.751Z,0.80
2024-03-03T11:37:55.766Z,1.00
2024-03-03T11:40:23.645Z,0.77
2024-03-03T11:42:51.373Z,0.98
2024-03-03T11:45:46.124Z,0.88
2024-03-03T11:48:14.780Z,0.93
2024-03-03T11:50:43.053Z,1.08
2024-03-03T11:53:12.231Z,1.02
2024-03-03T11:55:40.821Z,0.88
2024-03-03T11:58:08.879Z,1.08
2024-03-03T12:00:37.783Z,0.80
2024-03-03T12:03:06.104Z,0.73
2024-03-03T12:05:33.828Z,1.10
2024-03-03T12:08:03.047Z,0.90
2024-03-03T12:10:33.146Z,1.00
2024-03-03T12:13:03.245Z,0.80
2024-03-03T12:15:31.480Z,1.17
2024-03-03T12:18:00.728Z,0.80
2024-03-03T12:20:30.944Z,0.90
2024-03-03T12:22:59.287Z,0.73
2024-03-03T12:25:27.600Z,0.77
2024-03-03T12:27:58.700Z,0.80
2024-03-03T12:30:35.837Z,0.80
2024-03-03T12:33:06.369Z,0.82
2024-03-03T12:35:34.255Z,0.80
2024-03-03T12:38:02.758Z,0.93
2024-03-03T12:40:30.579Z,0.82
2024-03-03T12:43:00.203Z,0.90
2024-03-03T12:45:29.487Z,0.93
2024-03-03T12:47:57.291Z,0.88
2024-03-03T12:50:25.000Z,1.10
2024-03-03T12:52:53.190Z,0.68
2024-03-03T12:55:27.017Z,0.98
2024-03-03T12:57:55.142Z,0.80
2024-03-03T13:00:24.558Z,0.73
2024-03-03T13:02:52.652Z,0.82
2024-03-03T13:05:20.795Z,0.90
2024-03-03T13:07:49.168Z,0.70
2024-03-03T13:10:17.947Z,0.82
2024-03-03T13:12:45.804Z,0.85
2024-03-03T13:15:13.511Z,1.15
2024-03-03T13:17:42.591Z,0.80
2024-03-03T13:20:13.730Z,0.75
2024-03-03T13:22:41.902Z,0.73
2024-03-03T13:25:10.627Z,0.80
2024-03-03T13:27:38.413Z,0.80
2024-03-03T13:30:14.789Z,0.60
2024-03-03T13:32:44.054Z,0.80
2024-03-03T13:35:11.849Z,0.68
2024-03-03T13:37:39.718Z,0.50
2024-03-03T13:40:09.306Z,0.82
2024-03-03T13:42:37.457Z,0.90
2024-03-03T13:45:07.517Z,0.70
2024-03-03T13:47:36.704Z,0.73
2024-03-03T13:50:06.479Z,0.60
2024-03-03T13:52:34.252Z,0.70
2024-03-03T13:55:01.989Z,0.52
2024-03-03T13:57:30.338Z,0.80
2024-03-03T13:59:58.029Z,0.65
2024-03-03T14:02:25.703Z,0.70
2024-03-03T14:04:53.353Z,0.70
2024-03-03T14:07:22.902Z,0.82
2024-03-03T14:09:51.065Z,0.93
2024-03-03T14:12:18.830Z,0.75
2024-03-03T14:14:47.934Z,0.60
2024-03-03T14:17:15.610Z,0.77
2024-03-03T14:19:43.214Z,0.60
2024-03-03T14:22:11.697Z,0.70
2024-03-03T14:24:41.345Z,0.70
2024-03-03T14:27:09.232Z,0.93
2024-03-03T14:29:37.931Z,0.55
2024-03-03T14:32:06.048Z,0.88
2024-03-03T14:34:33.796Z,0.70
2024-03-03T14:37:02.131Z,0.70
2024-03-03T14:39:29.826Z,0.80
2024-03-03T14:41:58.798Z,0.80
2024-03-03T14:44:26.494Z,0.88
2024-03-03T14:46:55.471Z,0.82
2024-03-03T14:49:23.257Z,0.60
2024-03-03T14:51:51.024Z,0.60
2024-03-03T14:54:18.773Z,0.60
2024-03-03T14:56:46.476Z,0.60
2024-03-03T14:59:15.541Z,0.43
2024-03-03T15:01:43.320Z,0.63
2024-03-03T15:04:11.181Z,0.70
2024-03-03T15:06:38.925Z,0.50
2024-03-03T15:09:06.653Z,0.60
2024-03-03T15:11:36.306Z,0.50
2024-03-03T15:14:05.015Z,0.75
2024-03-03T15:16:34.095Z,0.55
2024-03-03T15:19:01.823Z,0.50
2024-03-03T15:21:29.439Z,0.60
2024-03-03T15:23:57.093Z,0.60
2024-03-03T15:26:25.853Z,0.60
2024-03-03T15:28:53.654Z,0.73
2024-03-03T15:31:21.418Z,0.50
2024-03-03T15:33:50.467Z,1.17
2024-03-03T15:36:18.141Z,0.50
2024-03-03T15:38:46.313Z,0.68
2024-03-03T15:41:14.017Z,0.52
2024-03-03T15:43:41.778Z,0.70
2024-03-03T15:46:09.552Z,0.60
2024-03-03T15:48:37.324Z,0.60
2024-03-03T15:51:06.914Z,0.60
2024-03-03T15:53:34.794Z,1.00
2024-03-03T15:56:02.717Z,0.73
2024-03-03T15:58:32.429Z,0.40
2024-03-03T16:01:00.741Z,0.70
2024-03-03T16:03:28.967Z,0.50
2024-03-03T16:05:56.767Z,0.60
2024-03-03T16:08:25.875Z,0.38
2024-03-03T16:10:54.653Z,0.60
2024-03-03T16:13:22.632Z,0.43
2024-03-03T16:15:51.469Z,0.52
2024-03-03T16:18:19.168Z,0.50
2024-03-03T16:20:46.810Z,0.30
2024-03-03T16:23:15.233Z,0.82
2024-03-03T16:25:45.345Z,0.77
2024-03-03T16:28:13.986Z,1.02
2024-03-03T16:30:41.742Z,0.47
2024-03-03T16:33:09.781Z,0.68
2024-03-03T16:35:37.514Z,0.75
2024-03-03T16:38:06.363Z,0.60
2024-03-03T16:40:33.216Z,0.90
2024-03-03T16:43:03.589Z,0.77
2024-03-03T16:45:31.855Z,0.85
2024-03-03T16:47:59.771Z,1.00
2024-03-03T16:50:28.239Z,0.82
2024-03-03T16:52:56.822Z,0.52
2024-03-03T16:55:25.575Z,0.93
2024-03-03T16:57:54.160Z,1.58
2024-03-03T17:00:23.317Z,0.88
2024-03-03T17:02:51.100Z,0.95
2024-03-03T17:05:19.818Z,0.68
2024-03-03T17:07:48.350Z,1.05
2024-03-03T17:10:16.060Z,0.65
2024-03-03T17:12:43.766Z,0.85
2024-03-03T17:15:12.581Z,0.70
2024-03-03T17:17:42.222Z,1.10
2024-03-03T17:20:10.339Z,1.23
2024-03-03T17:22:38.616Z,1.75
2024-03-03T17:25:07.554Z,2.05
2024-03-03T17:27:36.207Z,0.75
2024-03-03T17:30:04.165Z,0.63
2024-03-03T17:32:32.557Z,1.35
2024-03-03T17:35:01.693Z,1.10
2024-03-03T17:37:29.414Z,0.88
2024-03-03T17:39:57.435Z,1.60
2024-03-03T17:42:25.076Z,1.70
2024-03-03T17:44:53.292Z,1.58
2024-03-03T17:47:22.241Z,1.98
2024-03-03T17:49:50.167Z,1.10
2024-03-03T17:52:20.505Z,1.60
2024-03-03T17:54:48.333Z,2.70
2024-03-03T17:57:16.066Z,2.22
2024-03-03T17:59:45.138Z,2.35
2024-03-03T18:02:12.863Z,1.73
2024-03-03T18:04:40.761Z,1.73
2024-03-03T18:07:08.541Z,2.60
2024-03-03T18:09:37.831Z,2.13
2024-03-03T18:12:06.337Z,2.92
2024-03-03T18:14:33.930Z,1.45
2024-03-03T18:17:01.627Z,2.00
2024-03-03T18:19:30.963Z,1.08
2024-03-03T18:21:58.744Z,1.45
2024-03-03T18:24:26.605Z,1.73
2024-03-03T18:26:55.597Z,1.58
2024-03-03T18:29:23.265Z,1.90
2024-03-03T18:31:51.450Z,1.90
2024-03-03T18:34:20.478Z,2.55
2024-03-03T18:36:50.223Z,2.83
2024-03-03T18:39:19.295Z,2.35
2024-03-03T18:41:47.004Z,2.28
2024-03-03T18:44:17.177Z,3.80
2024-03-03T18:46:44.770Z,2.25
2024-03-03T18:49:12.740Z,2.35
2024-03-03T18:51:41.003Z,2.95
2024-03-03T18:54:08.629Z,2.88
2024-03-03T18:56:36.295Z,2.15
2024-03-03T18:59:03.970Z,2.88
2024-03-03T19:01:33.747Z,3.10
2024-03-03T19:04:01.695Z,3.45
2024-03-03T19:06:30.303Z,4.15
2024-03-03T19:08:58.053Z,5.32
2024-03-03T19:11:25.711Z,6.43
2024-03-03T19:13:54.167Z,6.18
2024-03-03T19:16:21.950Z,7.20
2024-03-03T19:18:51.272Z,5.65
2024-03-03T19:21:19.562Z,5.93
2024-03-03T19:23:47.212Z,6.78
2024-03-03T19:26:14.970Z,6.03
2024-03-03T19:28:42.719Z,5.38
2024-03-03T19:31:10.407Z,6.32
2024-03-03T19:33:38.119Z,5.72
2024-03-03T19:36:08.021Z,6.32
2024-03-03T19:38:35.739Z,4.25
2024-03-03T19:41:03.448Z,5.20
2024-03-03T19:43:31.349Z,4.43
2024-03-03T19:45:59.269Z,5.35
2024-03-03T19:48:26.985Z,4.88
2024-03-03T19:50:54.724Z,4.75
2024-03-03T19:53:23.806Z,4.65
2024-03-03T19:55:52.586Z,4.00
2024-03-03T19:58:21.703Z,3.92
2024-03-03T20:00:49.417Z,3.58
2024-03-03T20:03:17.100Z,3.97
2024-03-03T20:05:44.840Z,3.45
2024-03-03T20:08:12.600Z,4.00
2024-03-03T20:10:42.192Z,4.07
2024-03-03T20:13:10.335Z,3.40
2024-03-03T20:15:38.884Z,3.90
2024-03-03T20:18:07.434Z,3.53
2024-03-03T20:20:35.210Z,3.00
2024-03-03T20:23:02.927Z,2.85
2024-03-03T20:25:30.799Z,3.05
2024-03-03T20:27:59.903Z,2.70
2024-03-03T20:30:27.596Z,2.85
2024-03-03T20:32:55.331Z,2.90
2024-03-03T20:35:23.077Z,2.65
2024-03-03T20:37:50.949Z,2.83
2024-03-03T20:40:17.792Z,2.80
2024-03-03T20:42:45.611Z,2.72
2024-03-03T20:45:14.684Z,2.53
2024-03-03T20:47:43.536Z,2.65
2024-03-03T20:50:12.778Z,2.50
2024-03-03T20:52:41.484Z,2.72
2024-03-03T20:55:12.043Z,2.58
2024-03-03T20:57:40.124Z,2.55
2024-03-03T21:00:09.530Z,2.33
2024-03-03T21:02:40.984Z,2.30
2024-03-03T21:05:10.177Z,2.47
2024-03-03T21:07:38.094Z,2.45
2024-03-03T21:10:09.336Z,2.58
2024-03-03T21:15:06.651Z,2.50
2024-03-03T21:17:34.451Z,2.33
2024-03-03T21:20:04.281Z,2.03
2024-03-03T21:22:31.987Z,2.30
2024-03-03T21:24:59.741Z,2.47
2024-03-03T21:27:27.481Z,2.30
2024-03-03T21:29:55.151Z,2.38
2024-03-03T21:32:22.803Z,2.25
2024-03-03T21:34:50.530Z,1.80
2024-03-03T21:37:19.636Z,1.80
2024-03-03T21:39:48.032Z,1.52
2024-03-03T21:42:15.756Z,1.88
2024-03-03T21:44:43.417Z,1.95
2024-03-03T21:47:11.091Z,1.90
2024-03-03T21:49:38.755Z,2.10
2024-03-03T21:52:07.294Z,1.70
2024-03-03T21:54:36.422Z,1.65
2024-03-03T21:57:04.118Z,1.42
2024-03-03T21:59:31.807Z,1.90
2024-03-03T22:02:06.941Z,1.95
2024-03-03T22:04:36.341Z,1.70
2024-03-03T22:07:04.196Z,1.50
2024-03-03T22:09:31.959Z,1.50
2024-03-03T22:12:01.103Z,1.33
2024-03-03T22:14:28.695Z,1.58
2024-03-03T22:16:56.514Z,1.50
2024-03-03T22:19:24.244Z,1.23
2024-03-03T22:21:51.926Z,1.38
2024-03-03T22:24:19.711Z,1.35
2024-03-03T22:26:48.405Z,1.40
2024-03-03T22:29:18.528Z,1.63
2024-03-03T22:31:46.275Z,1.42
2024-03-03T22:34:14.113Z,2.25
2024-03-03T22:36:41.936Z,1.33
2024-03-03T22:39:09.592Z,1.42
2024-03-03T22:41:37.193Z,1.33
2024-03-03T22:44:05.508Z,1.63
2024-03-03T22:46:34.896Z,1.10
2024-03-03T22:49:03.636Z,1.30
2024-03-03T22:51:31.466Z,1.52
2024-03-03T22:53:58.286Z,1.27
2024-03-03T22:56:25.891Z,1.15
2024-03-03T22:58:53.844Z,1.42
2024-03-03T23:01:21.838Z,1.58
2024-03-03T23:03:51.672Z,1.30
2024-03-03T23:06:21.580Z,1.10
2024-03-03T23:08:49.372Z,1.17
2024-03-03T23:11:17.264Z,1.00
2024-03-03T23:13:50.149Z,1.00
2024-03-03T23:16:18.084Z,0.60
2024-03-03T23:18:45.769Z,1.30
2024-03-03T23:21:14.890Z,1.13
2024-03-03T23:23:43.325Z,1.10
2024-03-03T23:26:11.309Z,0.98
2024-03-03T23:28:39.914Z,0.85
2024-03-03T23:31:07.637Z,1.00
2024-03-03T23:33:35.285Z,0.88
2024-03-03T23:36:02.896Z,0.80
2024-03-03T23:38:32.688Z,0.93
2024-03-03T23:41:02.073Z,0.90
2024-03-03T23:43:29.798Z,0.90
2024-03-03T23:45:57.558Z,0.80
2024-03-03T23:48:25.276Z,0.88
2024-03-03T23:50:52.920Z,0.98
2024-03-03T23:53:20.844Z,0.90
2024-03-03T23:55:52.703Z,0.90
2024-03-03T23:58:20.375Z,1.00
